Philip R. Clarke — WDH7554 — position and weather

sailwx.info

Track history (hours):
 
Tides and Currents Weather Stations Pressure Air Temp Water Temp Dewpoint Dewpoint Depression Visibility Wind Speed Wind Dir Waves Ship Positions

Philip R. Clarke

Owner: Great Lakes Fleet, Inc., Homewood, IL. More information available from US FCC via Universal Licensing System and Coast Guard Vessel Documentation Center.

Last reported at 2018-Jun-20 05:28 UTC. Time now 2018-Jun-20 11:24 UTC.
Position N 47°01' W 091°36'.

Length 234 m; draft 24.3 m.

Type: Cargo ship. MMSI: 366971350.

Date/timePositionNaut miles runAvg speedWind from/ knotsBaromVisibWave heightAir tempDewpointWater temp
2018-Jun-20 05:28N 47°01' W 091°36'3 7.2
2018-Jun-20 05:01N 47°01' W 091°40'0 0.0
2018-Jun-19 15:37N 47°01' W 091°40'0 2.3
2018-Jun-19 15:30N 47°01' W 091°40'610.8
2018-Jun-19 14:56N 46°55' W 091°45'613.2
2018-Jun-19 14:30N 46°52' W 091°52'713.4
2018-Jun-19 14:00N 46°49' W 092°00'161.5
2018-Jun-19 14:00N 46°48' W 092°00'5 9.4 070 / 71019.2
2018-Jun-19 13:30N 46°46' W 092°06'0 0.9
2018-Jun-19 13:00N 46°45' W 092°06'0 0.0
2018-Jun-19 12:28N 46°45' W 092°06'0 0.0
2018-Jun-19 12:00N 46°45' W 092°06'1 1.1
2018-Jun-19 11:30N 46°45' W 092°05'2 3.1
2018-Jun-19 11:00N 46°44' W 092°07'0 0.0
2018-Jun-19 10:29N 46°44' W 092°07'0 0.0
2018-Jun-19 10:00N 46°44' W 092°07'0 0.0
2018-Jun-19 09:26N 46°44' W 092°07'0 0.0
2018-Jun-19 08:59N 46°44' W 092°07'0 0.0
2018-Jun-19 08:29N 46°44' W 092°07'0 0.0
2018-Jun-19 07:58N 46°44' W 092°07'0 0.0
2018-Jun-19 07:27N 46°44' W 092°07'0 0.0
2018-Jun-19 06:59N 46°44' W 092°07'0 0.0
2018-Jun-19 06:29N 46°44' W 092°07'0 0.0
2018-Jun-19 05:59N 46°44' W 092°07'0 0.0
2018-Jun-19 05:30N 46°44' W 092°07'0 0.0
2018-Jun-19 04:58N 46°44' W 092°07'0 0.0
2018-Jun-19 04:30N 46°44' W 092°07'0 0.0
2018-Jun-19 03:50N 46°44' W 092°07'0 0.0
2018-Jun-19 03:28N 46°44' W 092°07'0 0.2
2018-Jun-19 03:00N 46°44' W 092°07'0 0.6
2018-Jun-19 02:30N 46°45' W 092°07'0 0.1
2018-Jun-19 02:00N 46°45' W 092°07'2 3.1
2018-Jun-19 01:30N 46°46' W 092°06'3 6.9
2018-Jun-19 01:00N 46°48' W 092°02'713.1
2018-Jun-19 00:30N 46°50' W 091°53'713.3
2018-Jun-19 00:00N 46°53' W 091°44'2311.4
2018-Jun-18 22:00N 47°00' W 091°12'25413.4 010 / 141017.927.0 10.5 6.1
2018-Jun-18 03:00N 46°48' W 085°00'86 6.0 230 / 5975.2 16.6
2018-Jun-17 12:34N 45°37' W 083°49'113.4
2018-Jun-17 12:28N 45°36' W 083°49'613.1
2018-Jun-17 12:00N 45°30' W 083°47'4 8.8
2018-Jun-17 11:30N 45°25' W 083°46'1 2.0
2018-Jun-17 11:00N 45°25' W 083°47'0 0.0
2018-Jun-17 10:30N 45°25' W 083°47'0 0.1
2018-Jun-17 10:00N 45°25' W 083°47'0 0.0
2018-Jun-17 09:30N 45°25' W 083°47'0 0.0
2018-Jun-17 09:00N 45°25' W 083°47'0 0.0
2018-Jun-17 08:30N 45°25' W 083°47'0 0.0
2018-Jun-17 08:00N 45°25' W 083°47'0 0.1
2018-Jun-17 07:30N 45°25' W 083°47'0 0.0
2018-Jun-17 07:00N 45°25' W 083°47'0 0.0
2018-Jun-17 06:30N 45°25' W 083°47'0 0.0
2018-Jun-17 06:00N 45°25' W 083°47'0 0.0
2018-Jun-17 05:30N 45°25' W 083°47'0 0.0
2018-Jun-17 05:00N 45°25' W 083°47'0 0.0
2018-Jun-17 04:30N 45°25' W 083°47'0 0.1
2018-Jun-17 04:00N 45°25' W 083°47'0 0.0
2018-Jun-17 03:30N 45°25' W 083°47'0 0.0
2018-Jun-17 03:00N 45°25' W 083°47'0 0.0
2018-Jun-17 02:30N 45°25' W 083°47'0 0.0
2018-Jun-17 02:00N 45°25' W 083°47'0 0.1
2018-Jun-17 01:30N 45°25' W 083°47'0 0.0
2018-Jun-17 01:00N 45°25' W 083°47'0 0.0
2018-Jun-17 00:30N 45°25' W 083°47'0 0.0
2018-Jun-17 00:00N 45°25' W 083°47'0 0.0
2018-Jun-16 23:30N 45°25' W 083°47'0 0.0
2018-Jun-16 23:00N 45°25' W 083°47'0 0.0
2018-Jun-16 22:30N 45°25' W 083°47'0 0.0
2018-Jun-16 22:00N 45°25' W 083°47'0 0.0
2018-Jun-16 21:30N 45°25' W 083°47'0 0.0
2018-Jun-16 21:00N 45°25' W 083°47'0 0.0
2018-Jun-16 20:30N 45°25' W 083°47'0 0.0
2018-Jun-16 20:00N 45°25' W 083°47'0 0.0
2018-Jun-16 19:30N 45°25' W 083°47'0 0.0
2018-Jun-16 19:00N 45°25' W 083°47'0 0.0
2018-Jun-16 18:30N 45°25' W 083°47'0 0.1
2018-Jun-16 18:00N 45°25' W 083°47'0 0.0
2018-Jun-16 17:30N 45°25' W 083°47'0 0.0
2018-Jun-16 17:00N 45°25' W 083°47'0 0.1
2018-Jun-16 16:30N 45°25' W 083°47'0 0.7
2018-Jun-16 16:00N 45°25' W 083°47'3 6.4
2018-Jun-16 15:30N 45°26' W 083°42'713.3
2018-Jun-16 15:00N 45°24' W 083°33'224 5.1
2018-Jun-14 19:00N 41°54' W 081°48'111 6.5 230 / 121018.210.8 21.1
2018-Jun-14 02:00N 43°42' W 082°24'11513.3 280 / 20 16.1
2018-Jun-13 17:21N 45°26' W 083°31'513.2
2018-Jun-13 17:00N 45°28' W 083°37'713.2
2018-Jun-13 16:27N 45°31' W 083°46'3113.0
2018-Jun-13 14:02N 45°42' W 084°29'413.2
2018-Jun-13 13:44N 45°44' W 084°33'313.2
2018-Jun-13 13:30N 45°46' W 084°37'713.4
2018-Jun-13 13:00N 45°49' W 084°46'713.3
2018-Jun-13 12:30N 45°50' W 084°55'713.2
2018-Jun-13 12:00N 45°51' W 085°04'34 1.7
2018-Jun-12 15:43N 45°57' W 085°52'2838.3
2018-Jun-12 15:00N 45°42' W 085°18'2711.0 110 / 41016.5 17.2
2018-Jun-12 12:32N 45°54' W 085°53'213.3
2018-Jun-12 12:24N 45°52' W 085°54'3514.6
2018-Jun-12 10:00N 45°18' W 086°06'11115.9 110 / 81015.927.0 12.2 12.2
2018-Jun-12 03:00N 43°30' W 086°42'87 4.1 020 / 61015.9 14.4
2018-Jun-11 06:00N 42°06' W 087°12'10413.0 080 / 161012.8 5.4 14.4
2018-Jun-10 22:00N 43°48' W 086°42'8313.1 090 / 141014.527.0 16.6 9.9
2018-Jun-10 15:40N 45°09' W 086°16'412.9
2018-Jun-10 15:20N 45°13' W 086°15'413.0
2018-Jun-10 15:00N 45°17' W 086°14'734897.8
2018-Jun-10 15:00N 46°30' W 086°00'67137.3 060 / 151018.610.8 11.1
2018-Jun-10 14:30N 45°24' W 086°12'1313.1
2018-Jun-10 13:30N 45°36' W 086°08'611.9
2018-Jun-10 13:00N 45°42' W 086°04'613.1
2018-Jun-10 12:30N 45°45' W 085°56'713.0
2018-Jun-10 12:00N 45°48' W 085°48'613.0
2018-Jun-10 11:30N 45°51' W 085°40'612.6
2018-Jun-10 11:00N 45°54' W 085°31'612.9
2018-Jun-10 10:30N 45°53' W 085°22'613.0
2018-Jun-10 10:00N 45°52' W 085°13'713.0
2018-Jun-10 09:30N 45°51' W 085°04'613.0
2018-Jun-10 09:00N 45°50' W 084°55'713.1
2018-Jun-10 08:30N 45°49' W 084°45'612.3
2018-Jun-10 08:00N 45°51' W 084°37'613.0
2018-Jun-10 07:30N 45°51' W 084°28'713.1
2018-Jun-10 07:00N 45°52' W 084°18'713.0
2018-Jun-10 06:29N 45°53' W 084°09'613.2
2018-Jun-10 06:00N 45°55' W 083°60'176.4
2018-Jun-10 06:00N 45°54' W 084°00'   070 / 81019.610.8 12.2
Track history (hours):
 
Tides and Currents Weather Stations Pressure Air Temp Water Temp Dewpoint Dewpoint Depression Visibility Wind Speed Wind Dir Waves Ship Positions

Philip R. Clarke

Owner: Great Lakes Fleet, Inc., Homewood, IL. More information available from US FCC via Universal Licensing System and Coast Guard Vessel Documentation Center.

Last reported at 2018-Jun-20 05:28 UTC. Time now 2018-Jun-20 11:24 UTC.
Position N 47°01' W 091°36'.

Length 234 m; draft 24.3 m.

Type: Cargo ship. MMSI: 366971350.

Date/timePositionNaut miles runAvg speedWind from/ knotsBaromVisibWave heightAir tempDewpointWater temp
2018-Jun-20 05:28N 47°01' W 091°36'3 7.2
2018-Jun-20 05:01N 47°01' W 091°40'0 0.0
2018-Jun-19 15:37N 47°01' W 091°40'0 2.3
2018-Jun-19 15:30N 47°01' W 091°40'610.8
2018-Jun-19 14:56N 46°55' W 091°45'613.2
2018-Jun-19 14:30N 46°52' W 091°52'713.4
2018-Jun-19 14:00N 46°49' W 092°00'161.5
2018-Jun-19 14:00N 46°48' W 092°00'5 9.4 070 / 71019.2
2018-Jun-19 13:30N 46°46' W 092°06'0 0.9
2018-Jun-19 13:00N 46°45' W 092°06'0 0.0
2018-Jun-19 12:28N 46°45' W 092°06'0 0.0
2018-Jun-19 12:00N 46°45' W 092°06'1 1.1
2018-Jun-19 11:30N 46°45' W 092°05'2 3.1
2018-Jun-19 11:00N 46°44' W 092°07'0 0.0
2018-Jun-19 10:29N 46°44' W 092°07'0 0.0
2018-Jun-19 10:00N 46°44' W 092°07'0 0.0
2018-Jun-19 09:26N 46°44' W 092°07'0 0.0
2018-Jun-19 08:59N 46°44' W 092°07'0 0.0
2018-Jun-19 08:29N 46°44' W 092°07'0 0.0
2018-Jun-19 07:58N 46°44' W 092°07'0 0.0
2018-Jun-19 07:27N 46°44' W 092°07'0 0.0
2018-Jun-19 06:59N 46°44' W 092°07'0 0.0
2018-Jun-19 06:29N 46°44' W 092°07'0 0.0
2018-Jun-19 05:59N 46°44' W 092°07'0 0.0
2018-Jun-19 05:30N 46°44' W 092°07'0 0.0
2018-Jun-19 04:58N 46°44' W 092°07'0 0.0
2018-Jun-19 04:30N 46°44' W 092°07'0 0.0
2018-Jun-19 03:50N 46°44' W 092°07'0 0.0
2018-Jun-19 03:28N 46°44' W 092°07'0 0.2
2018-Jun-19 03:00N 46°44' W 092°07'0 0.6
2018-Jun-19 02:30N 46°45' W 092°07'0 0.1
2018-Jun-19 02:00N 46°45' W 092°07'2 3.1
2018-Jun-19 01:30N 46°46' W 092°06'3 6.9
2018-Jun-19 01:00N 46°48' W 092°02'713.1
2018-Jun-19 00:30N 46°50' W 091°53'713.3
2018-Jun-19 00:00N 46°53' W 091°44'2311.4
2018-Jun-18 22:00N 47°00' W 091°12'25413.4 010 / 141017.927.0 10.5 6.1
2018-Jun-18 03:00N 46°48' W 085°00'86 6.0 230 / 5975.2 16.6
2018-Jun-17 12:34N 45°37' W 083°49'113.4
2018-Jun-17 12:28N 45°36' W 083°49'613.1
2018-Jun-17 12:00N 45°30' W 083°47'4 8.8
2018-Jun-17 11:30N 45°25' W 083°46'1 2.0
2018-Jun-17 11:00N 45°25' W 083°47'0 0.0
2018-Jun-17 10:30N 45°25' W 083°47'0 0.1
2018-Jun-17 10:00N 45°25' W 083°47'0 0.0
2018-Jun-17 09:30N 45°25' W 083°47'0 0.0
2018-Jun-17 09:00N 45°25' W 083°47'0 0.0
2018-Jun-17 08:30N 45°25' W 083°47'0 0.0
2018-Jun-17 08:00N 45°25' W 083°47'0 0.1
2018-Jun-17 07:30N 45°25' W 083°47'0 0.0
2018-Jun-17 07:00N 45°25' W 083°47'0 0.0
2018-Jun-17 06:30N 45°25' W 083°47'0 0.0
2018-Jun-17 06:00N 45°25' W 083°47'0 0.0
2018-Jun-17 05:30N 45°25' W 083°47'0 0.0
2018-Jun-17 05:00N 45°25' W 083°47'0 0.0
2018-Jun-17 04:30N 45°25' W 083°47'0 0.1
2018-Jun-17 04:00N 45°25' W 083°47'0 0.0
2018-Jun-17 03:30N 45°25' W 083°47'0 0.0
2018-Jun-17 03:00N 45°25' W 083°47'0 0.0
2018-Jun-17 02:30N 45°25' W 083°47'0 0.0
2018-Jun-17 02:00N 45°25' W 083°47'0 0.1
2018-Jun-17 01:30N 45°25' W 083°47'0 0.0
2018-Jun-17 01:00N 45°25' W 083°47'0 0.0
2018-Jun-17 00:30N 45°25' W 083°47'0 0.0
2018-Jun-17 00:00N 45°25' W 083°47'0 0.0
2018-Jun-16 23:30N 45°25' W 083°47'0 0.0
2018-Jun-16 23:00N 45°25' W 083°47'0 0.0
2018-Jun-16 22:30N 45°25' W 083°47'0 0.0
2018-Jun-16 22:00N 45°25' W 083°47'0 0.0
2018-Jun-16 21:30N 45°25' W 083°47'0 0.0
2018-Jun-16 21:00N 45°25' W 083°47'0 0.0
2018-Jun-16 20:30N 45°25' W 083°47'0 0.0
2018-Jun-16 20:00N 45°25' W 083°47'0 0.0
2018-Jun-16 19:30N 45°25' W 083°47'0 0.0
2018-Jun-16 19:00N 45°25' W 083°47'0 0.0
2018-Jun-16 18:30N 45°25' W 083°47'0 0.1
2018-Jun-16 18:00N 45°25' W 083°47'0 0.0
2018-Jun-16 17:30N 45°25' W 083°47'0 0.0
2018-Jun-16 17:00N 45°25' W 083°47'0 0.1
2018-Jun-16 16:30N 45°25' W 083°47'0 0.7
2018-Jun-16 16:00N 45°25' W 083°47'3 6.4
2018-Jun-16 15:30N 45°26' W 083°42'713.3
2018-Jun-16 15:00N 45°24' W 083°33'224 5.1
2018-Jun-14 19:00N 41°54' W 081°48'111 6.5 230 / 121018.210.8 21.1
2018-Jun-14 02:00N 43°42' W 082°24'11513.3 280 / 20 16.1
2018-Jun-13 17:21N 45°26' W 083°31'513.2
2018-Jun-13 17:00N 45°28' W 083°37'713.2
2018-Jun-13 16:27N 45°31' W 083°46'3113.0
2018-Jun-13 14:02N 45°42' W 084°29'413.2
2018-Jun-13 13:44N 45°44' W 084°33'313.2
2018-Jun-13 13:30N 45°46' W 084°37'713.4
2018-Jun-13 13:00N 45°49' W 084°46'713.3
2018-Jun-13 12:30N 45°50' W 084°55'713.2
2018-Jun-13 12:00N 45°51' W 085°04'34 1.7
2018-Jun-12 15:43N 45°57' W 085°52'2838.3
2018-Jun-12 15:00N 45°42' W 085°18'2711.0 110 / 41016.5 17.2
2018-Jun-12 12:32N 45°54' W 085°53'213.3
2018-Jun-12 12:24N 45°52' W 085°54'3514.6
2018-Jun-12 10:00N 45°18' W 086°06'11115.9 110 / 81015.927.0 12.2 12.2
2018-Jun-12 03:00N 43°30' W 086°42'87 4.1 020 / 61015.9 14.4
2018-Jun-11 06:00N 42°06' W 087°12'10413.0 080 / 161012.8 5.4 14.4
2018-Jun-10 22:00N 43°48' W 086°42'8313.1 090 / 141014.527.0 16.6 9.9
2018-Jun-10 15:40N 45°09' W 086°16'412.9
2018-Jun-10 15:20N 45°13' W 086°15'413.0
2018-Jun-10 15:00N 45°17' W 086°14'734897.8
2018-Jun-10 15:00N 46°30' W 086°00'67137.3 060 / 151018.610.8 11.1
2018-Jun-10 14:30N 45°24' W 086°12'1313.1
2018-Jun-10 13:30N 45°36' W 086°08'611.9
2018-Jun-10 13:00N 45°42' W 086°04'613.1
2018-Jun-10 12:30N 45°45' W 085°56'713.0
2018-Jun-10 12:00N 45°48' W 085°48'613.0
2018-Jun-10 11:30N 45°51' W 085°40'612.6
2018-Jun-10 11:00N 45°54' W 085°31'612.9
2018-Jun-10 10:30N 45°53' W 085°22'613.0
2018-Jun-10 10:00N 45°52' W 085°13'713.0
2018-Jun-10 09:30N 45°51' W 085°04'613.0
2018-Jun-10 09:00N 45°50' W 084°55'713.1
2018-Jun-10 08:30N 45°49' W 084°45'612.3
2018-Jun-10 08:00N 45°51' W 084°37'613.0
2018-Jun-10 07:30N 45°51' W 084°28'713.1
2018-Jun-10 07:00N 45°52' W 084°18'713.0
2018-Jun-10 06:29N 45°53' W 084°09'613.2
2018-Jun-10 06:00N 45°55' W 083°60'176.4
2018-Jun-10 06:00N 45°54' W 084°00'   070 / 81019.610.8 12.2

Dump ship's entire track history